Aeroporto :
LOGIN :

Iscrizione | Disclaimer

   EN    FR    IT 

 










Sommario :    VFR   VFR Marginale   IFR   IFR Intensivo   IFR Molto Intensivo
Visibilità : 
Base nubi : 
>= 8 km
>= 3000ft
5 / 8 km
1000 / 3000 ft
1500m / 5 km
500 / 1000 ft
800 / 1500m
200 / 500 ft
< 800m
< 200 ft
Simboli :   Temporali  Nebbia  Neve Forte  Precipitazioni Forti  Vento > 20 kt
SIGMETs :   Varie  Temporali  Ghiacco  Turbolenza  Onda orograficha  Ceneri Vulcaniche






- Altitudine del aeroporto : 11 ft
- Codice IATA : MJV


LELC - Murcia San Javier

ULTIMO METAR :
  • 291330Z 07005KT 020V120 CAVOK 22/16 Q1026 NOSIG

METARs OBSOLETI :
  • 291300Z 06007KT 020V100 CAVOK 21/16 Q1026 NOSIG
  • 291230Z 06008KT 030V100 CAVOK 22/16 Q1026 NOSIG
  • 291200Z 06009KT 020V100 CAVOK 22/16 Q1026 NOSIG
  • 291130Z 06008KT 020V100 9999 FEW030 22/15 Q1027 NOSIG

TAF TAF LELC
Valido dal 29 a 12 ore il 30 a 12 ore UTC


291100Z 2912/3012 07006KT 9999 FEW030 TX23/2913Z TN11/3006Z



MetMap, La meteo Aeronautica in un colpo d'occhio ! - Copyright ORBIFLY Dicembre 2007 - Disclaimer

ORBIFLY MET'MAP TEAM :

Programmazione e sviluppo : Alexandra Zaïnal
Concezione : Baudouin d'Aumeries
Aiuto per la programmazione : Marc-Olivier Méhu
Supporto tecnico e logistico : Manuel Goepfert
Aiuto per la traduzione : Arnaldo La Scala

Contatto : metmap@orbifly.com




FONTI E CREDITI :

   NOAA